createdAt,value
2019-03-04T00:01:00.625Z,99418.44
2019-03-04T00:03:29.492Z,99430.13
2019-03-04T00:05:58.400Z,99424.48
2019-03-04T00:08:27.426Z,99411.53
2019-03-04T00:10:56.296Z,99408.97
2019-03-04T00:13:25.338Z,99385.95
2019-03-04T00:15:54.429Z,99381.58
2019-03-04T00:18:23.316Z,99397.66
2019-03-04T00:20:51.977Z,99381.58
2019-03-04T00:23:21.090Z,99385.86
2019-03-04T00:25:51.803Z,99396.70
2019-03-04T00:28:20.594Z,99390.61
2019-03-04T00:30:49.455Z,99384.11
2019-03-04T00:33:18.356Z,99363.46
2019-03-04T00:35:47.253Z,99371.39
2019-03-04T00:38:16.116Z,99360.55
2019-03-04T00:40:45.274Z,99365.34
2019-03-04T00:43:14.191Z,99356.28
2019-03-04T00:45:43.075Z,99355.91
2019-03-04T00:48:12.194Z,99343.36
2019-03-04T00:50:41.271Z,99355.18
2019-03-04T00:53:09.924Z,99335.45
2019-03-04T00:55:38.808Z,99325.16
2019-03-04T00:58:07.812Z,99321.71
2019-03-04T01:00:36.795Z,99312.14
2019-03-04T01:03:06.443Z,99315.86
2019-03-04T01:05:35.339Z,99310.19
2019-03-04T01:08:04.047Z,99310.63
2019-03-04T01:10:32.734Z,99316.75
2019-03-04T01:13:01.365Z,99317.19
2019-03-04T01:15:30.333Z,99303.83
2019-03-04T01:17:59.140Z,99330.55
2019-03-04T01:20:28.337Z,99318.39
2019-03-04T01:22:57.298Z,99278.21
2019-03-04T01:25:26.107Z,99270.11
2019-03-04T01:27:54.763Z,99278.41
2019-03-04T01:30:24.059Z,99278.41
2019-03-04T01:32:53.302Z,99271.44
2019-03-04T01:35:22.006Z,99264.55
2019-03-04T01:37:50.897Z,99302.13
2019-03-04T01:40:21.011Z,99257.98
2019-03-04T01:42:50.101Z,99259.77
2019-03-04T01:45:19.076Z,99274.39
2019-03-04T01:47:47.713Z,99273.02
2019-03-04T01:50:17.709Z,99266.53
2019-03-04T01:52:46.657Z,99257.85
2019-03-04T01:55:16.429Z,99253.95
2019-03-04T01:57:45.606Z,99263.11
2019-03-04T02:00:16.447Z,99257.06
2019-03-04T02:02:45.487Z,99269.61
2019-03-04T02:05:14.388Z,99274.89
2019-03-04T02:07:43.394Z,99272.77
2019-03-04T02:10:16.638Z,99296.90
2019-03-04T02:12:45.680Z,99290.31
2019-03-04T02:15:16.514Z,99291.58
2019-03-04T02:17:46.031Z,99286.34
2019-03-04T02:20:16.134Z,99286.66
2019-03-04T02:22:45.143Z,99274.05
2019-03-04T02:25:15.674Z,99280.16
2019-03-04T02:27:49.392Z,99249.00
2019-03-04T02:30:23.494Z,99255.63
2019-03-04T02:32:52.659Z,99262.19
2019-03-04T02:35:21.632Z,99230.14
2019-03-04T02:37:50.508Z,99210.81
2019-03-04T02:40:20.129Z,99220.27
2019-03-04T02:42:49.219Z,99215.08
2019-03-04T02:45:18.534Z,99200.36
2019-03-04T02:47:47.413Z,99187.97
2019-03-04T02:50:16.582Z,99191.41
2019-03-04T02:52:45.250Z,99182.11
2019-03-04T02:55:15.263Z,99207.45
2019-03-04T02:57:46.022Z,99216.02
2019-03-04T03:00:16.350Z,99177.89
2019-03-04T03:02:45.332Z,99163.80
2019-03-04T03:05:14.162Z,99170.69
2019-03-04T03:07:43.769Z,99163.23
2019-03-04T03:10:13.188Z,99132.01
2019-03-04T03:12:42.154Z,99155.75
2019-03-04T03:15:11.138Z,99145.33
2019-03-04T03:17:40.125Z,99136.23
2019-03-04T03:20:09.988Z,99140.28
2019-03-04T03:22:39.257Z,99114.88
2019-03-04T03:25:08.271Z,99117.13
2019-03-04T03:27:37.265Z,99121.06
2019-03-04T03:30:07.438Z,99132.59
2019-03-04T03:32:36.468Z,99129.11
2019-03-04T03:35:08.425Z,99143.83
2019-03-04T03:37:37.375Z,99101.81
2019-03-04T03:40:07.694Z,99094.36
2019-03-04T03:42:36.690Z,99080.61
2019-03-04T03:45:06.341Z,99079.75
2019-03-04T03:47:35.245Z,99089.20
2019-03-04T03:50:04.850Z,99086.17
2019-03-04T03:52:33.765Z,99088.28
2019-03-04T03:55:02.447Z,99081.92
2019-03-04T03:57:31.153Z,99073.64
2019-03-04T03:59:59.901Z,99067.59
2019-03-04T04:02:28.529Z,99050.67
2019-03-04T04:04:57.172Z,99044.62
2019-03-04T04:07:26.102Z,99039.08
2019-03-04T04:09:54.719Z,99033.88
2019-03-04T04:12:23.635Z,99033.83
2019-03-04T04:14:52.510Z,99041.71
2019-03-04T04:17:21.392Z,99032.53
2019-03-04T04:19:52.876Z,99003.13
2019-03-04T04:22:20.623Z,99032.95
2019-03-04T04:24:49.852Z,99005.77
2019-03-04T04:27:18.774Z,98995.09
2019-03-04T04:29:47.627Z,99014.00
2019-03-04T04:32:16.516Z,98991.48
2019-03-04T04:34:45.985Z,98994.56
2019-03-04T04:37:14.607Z,98992.73
2019-03-04T04:39:43.541Z,98985.30
2019-03-04T04:42:13.167Z,98982.36
2019-03-04T04:44:42.045Z,98975.62
2019-03-04T04:47:11.292Z,98962.88
2019-03-04T04:49:40.699Z,98977.56
2019-03-04T04:52:09.593Z,98964.13
2019-03-04T04:54:38.246Z,98968.22
2019-03-04T04:57:07.344Z,98960.11
2019-03-04T04:59:36.462Z,98960.42
2019-03-04T05:02:05.744Z,98963.42
2019-03-04T05:04:34.374Z,98945.25
2019-03-04T05:07:03.282Z,98937.91
2019-03-04T05:09:32.383Z,98952.59
2019-03-04T05:12:01.505Z,98933.11
2019-03-04T05:14:30.438Z,98941.57
2019-03-04T05:16:59.302Z,98925.00
2019-03-04T05:19:28.408Z,98918.28
2019-03-04T05:21:57.055Z,98917.61
2019-03-04T05:24:25.688Z,98908.61
2019-03-04T05:26:54.910Z,98901.38
2019-03-04T05:29:23.557Z,98891.48
2019-03-04T05:31:52.481Z,98835.72
2019-03-04T05:34:21.477Z,98845.22
2019-03-04T05:36:50.393Z,98826.44
2019-03-04T05:39:19.234Z,98802.30
2019-03-04T05:41:51.155Z,98827.97
2019-03-04T05:44:19.765Z,98821.79
2019-03-04T05:46:48.621Z,98823.53
2019-03-04T05:49:17.323Z,98808.14
2019-03-04T05:51:46.247Z,98792.91
2019-03-04T05:54:15.102Z,98794.60
2019-03-04T05:56:43.757Z,98836.61
2019-03-04T05:59:19.397Z,98789.74
2019-03-04T06:02:03.621Z,98767.94
2019-03-04T06:04:33.168Z,98761.14
2019-03-04T06:07:21.258Z,98736.50
2019-03-04T06:09:50.229Z,98731.80
2019-03-04T06:12:18.937Z,98742.20
2019-03-04T06:14:47.670Z,98744.52
2019-03-04T06:17:16.525Z,98746.63
2019-03-04T06:19:45.697Z,98758.63
2019-03-04T06:22:14.645Z,98762.75
2019-03-04T06:24:43.517Z,98739.23
2019-03-04T06:27:12.396Z,98749.70
2019-03-04T06:29:41.305Z,98737.78
2019-03-04T06:32:10.217Z,98736.69
2019-03-04T06:34:38.916Z,98722.84
2019-03-04T06:37:08.157Z,98707.92
2019-03-04T06:39:37.056Z,98694.34
2019-03-04T06:42:05.946Z,98677.61
2019-03-04T06:44:34.934Z,98678.19
2019-03-04T06:47:03.540Z,98655.42
2019-03-04T06:49:32.672Z,98638.23
2019-03-04T06:52:01.805Z,98633.83
2019-03-04T06:54:50.178Z,98622.75
2019-03-04T06:57:46.018Z,98620.15
2019-03-04T07:01:04.865Z,98618.44
2019-03-04T07:03:40.207Z,98609.77
2019-03-04T07:06:09.986Z,98615.37
2019-03-04T07:09:06.323Z,98610.31
2019-03-04T07:11:35.530Z,98610.14
2019-03-04T07:14:04.463Z,98618.23
2019-03-04T07:16:33.422Z,98614.66
2019-03-04T07:19:05.157Z,98612.59
2019-03-04T07:21:33.820Z,98617.27
2019-03-04T07:24:02.979Z,98619.33
2019-03-04T07:26:32.139Z,98629.34
2019-03-04T07:29:01.645Z,98616.73
2019-03-04T07:31:31.954Z,98623.38
2019-03-04T07:34:00.575Z,98615.51
2019-03-04T07:36:29.851Z,98603.92
2019-03-04T07:39:05.827Z,98583.68
2019-03-04T07:41:36.561Z,98581.87
2019-03-04T07:44:05.275Z,98576.39
2019-03-04T07:46:34.168Z,98575.42
2019-03-04T07:49:03.040Z,98579.66
2019-03-04T07:51:32.459Z,98567.34
2019-03-04T07:54:01.198Z,98550.98
2019-03-04T07:56:29.892Z,98560.55
2019-03-04T07:58:59.070Z,98559.55
2019-03-04T08:01:28.550Z,98535.05
2019-03-04T08:03:58.889Z,98527.77
2019-03-04T08:06:29.137Z,98520.80
2019-03-04T08:09:44.983Z,98533.24
2019-03-04T08:12:41.622Z,98524.98
2019-03-04T08:15:32.204Z,98529.34
2019-03-04T08:18:02.933Z,98492.77
2019-03-04T08:20:32.702Z,98485.34
2019-03-04T08:23:04.104Z,98464.86
2019-03-04T08:25:32.898Z,98470.65
2019-03-04T08:28:02.085Z,98458.75
2019-03-04T08:30:30.904Z,98445.35
2019-03-04T08:32:59.782Z,98459.59
2019-03-04T08:35:28.665Z,98447.56
2019-03-04T08:37:57.352Z,98447.11
2019-03-04T08:40:26.559Z,98438.91
2019-03-04T08:42:55.413Z,98440.21
2019-03-04T08:45:24.374Z,98417.45
2019-03-04T08:47:53.320Z,98408.98
2019-03-04T08:50:27.136Z,98398.45
2019-03-04T08:52:57.826Z,98397.02
2019-03-04T08:55:26.733Z,98372.86
2019-03-04T08:57:56.267Z,98372.95
2019-03-04T09:00:27.542Z,98369.55
2019-03-04T09:02:56.412Z,98370.74
2019-03-04T09:05:25.390Z,98365.40
2019-03-04T09:07:54.746Z,98347.45
2019-03-04T09:10:29.674Z,98358.86
2019-03-04T09:12:58.668Z,98337.82
2019-03-04T09:15:27.932Z,98343.88
2019-03-04T09:17:56.953Z,98337.83
2019-03-04T09:20:25.921Z,98345.31
2019-03-04T09:22:55.353Z,98339.13
2019-03-04T09:25:36.007Z,98324.48
2019-03-04T09:28:04.772Z,98335.43
2019-03-04T09:30:33.683Z,98303.84
2019-03-04T09:33:02.858Z,98309.44
2019-03-04T09:35:32.674Z,98309.01
2019-03-04T09:38:01.731Z,98273.20
2019-03-04T09:40:30.590Z,98267.70
2019-03-04T09:42:59.386Z,98289.39
2019-03-04T09:45:38.013Z,98259.50
2019-03-04T09:47:58.866Z,98272.73
2019-03-04T09:50:27.774Z,98248.86
2019-03-04T09:52:56.953Z,98235.36
2019-03-04T09:55:26.076Z,98276.46
2019-03-04T09:57:55.200Z,98249.55
2019-03-04T10:00:37.810Z,98202.70
2019-03-04T10:03:47.946Z,98220.65
2019-03-04T10:06:49.782Z,98210.11
2019-03-04T10:10:09.111Z,98209.30
2019-03-04T10:13:16.321Z,98219.05
2019-03-04T10:16:23.738Z,98202.95
2019-03-04T10:19:39.888Z,98194.66
2019-03-04T10:22:27.235Z,98198.34
2019-03-04T10:25:41.919Z,98210.37
2019-03-04T10:28:38.082Z,98235.37
2019-03-04T10:31:37.203Z,98253.37
2019-03-04T10:34:58.404Z,98297.77
2019-03-04T10:38:10.365Z,98403.03
2019-03-04T10:41:15.377Z,98313.72
2019-03-04T10:44:16.873Z,98319.72
2019-03-04T10:46:56.192Z,98296.99
2019-03-04T10:49:26.645Z,98296.99
2019-03-04T10:51:55.419Z,98330.31
2019-03-04T10:54:24.186Z,98330.31
2019-03-04T10:56:53.293Z,98304.28
2019-03-04T10:59:21.936Z,98314.41
2019-03-04T11:01:50.636Z,98359.52
2019-03-04T11:04:19.870Z,98336.11
2019-03-04T11:06:48.724Z,98351.84
2019-03-04T11:09:17.591Z,98311.55
2019-03-04T11:11:46.586Z,98311.55
2019-03-04T11:14:15.497Z,98343.77
2019-03-04T11:16:44.480Z,98308.55
2019-03-04T11:19:13.454Z,98347.66
2019-03-04T11:21:42.594Z,98315.70
2019-03-04T11:24:12.120Z,98308.55
2019-03-04T11:26:41.058Z,98308.55
2019-03-04T11:29:13.243Z,98294.64
2019-03-04T11:31:41.585Z,98284.38
2019-03-04T11:34:10.292Z,98304.05
2019-03-04T11:36:38.928Z,98295.77
2019-03-04T11:39:42.452Z,98303.14
2019-03-04T11:42:11.165Z,98270.27
2019-03-04T11:44:39.819Z,98280.79
2019-03-04T11:47:08.894Z,98280.79
2019-03-04T11:49:37.812Z,98270.24
2019-03-04T11:52:06.784Z,98261.16
2019-03-04T11:54:35.668Z,98273.94
2019-03-04T11:57:04.857Z,98258.69
2019-03-04T11:59:33.470Z,98276.93
2019-03-04T12:02:02.398Z,98292.39
2019-03-04T12:04:31.272Z,98311.73
2019-03-04T12:07:00.128Z,98311.63
2019-03-04T12:09:28.755Z,98283.08
2019-03-04T12:11:57.726Z,98335.88
2019-03-04T12:14:26.348Z,98305.11
2019-03-04T12:16:55.249Z,98303.05
2019-03-04T12:19:24.190Z,98304.63
2019-03-04T12:21:53.126Z,98309.11
2019-03-04T12:24:21.799Z,98303.73
2019-03-04T12:26:50.639Z,98310.59
2019-03-04T12:29:19.263Z,98290.98
2019-03-04T12:32:06.050Z,98292.79
2019-03-04T12:34:34.750Z,98272.34
2019-03-04T12:37:03.433Z,98273.05
2019-03-04T12:39:32.326Z,98257.95
2019-03-04T12:42:01.177Z,98238.02
2019-03-04T12:44:30.084Z,98238.02
2019-03-04T12:46:58.717Z,98232.08
2019-03-04T12:49:27.616Z,98253.46
2019-03-04T12:51:56.253Z,98218.37
2019-03-04T12:54:25.424Z,98224.14
2019-03-04T12:56:54.301Z,98201.16
2019-03-04T12:59:23.469Z,98216.97
2019-03-04T13:01:52.369Z,98223.31
2019-03-04T13:04:21.473Z,98224.91
2019-03-04T13:06:50.140Z,98177.53
2019-03-04T13:09:18.780Z,98157.91
2019-03-04T13:11:47.651Z,98162.20
2019-03-04T13:14:16.627Z,98204.72
2019-03-04T13:16:45.334Z,98184.74
2019-03-04T13:19:14.206Z,98129.80
2019-03-04T13:21:42.966Z,98159.62
2019-03-04T13:24:11.823Z,98217.37
2019-03-04T13:26:40.726Z,98235.50
2019-03-04T13:29:09.770Z,98291.69
2019-03-04T13:31:38.639Z,98248.90
2019-03-04T13:34:07.530Z,98248.90
2019-03-04T13:36:36.427Z,98274.39
2019-03-04T13:39:07.299Z,98355.16
2019-03-04T13:41:36.973Z,98275.89
2019-03-04T13:44:05.989Z,98271.92
2019-03-04T13:46:34.652Z,98303.66
2019-03-04T13:49:03.312Z,98307.47
2019-03-04T13:51:32.155Z,98306.31
2019-03-04T13:54:01.573Z,98302.13
2019-03-04T13:56:30.505Z,98313.41
2019-03-04T13:58:59.902Z,98337.59
2019-03-04T14:01:28.612Z,98307.44
2019-03-04T14:03:57.239Z,98291.38
2019-03-04T14:06:25.957Z,98287.21
2019-03-04T14:08:56.522Z,98292.70
2019-03-04T14:11:25.465Z,98292.16
2019-03-04T14:13:54.424Z,98286.83
2019-03-04T14:16:23.346Z,98301.68
2019-03-04T14:18:52.201Z,98296.01
2019-03-04T14:21:20.837Z,98297.35
2019-03-04T14:23:49.718Z,98321.88
2019-03-04T14:26:18.904Z,98295.16
2019-03-04T14:28:47.556Z,98283.55
2019-03-04T14:31:16.180Z,98310.54
2019-03-04T14:33:45.118Z,98310.99
2019-03-04T14:36:13.859Z,98337.34
2019-03-04T14:38:42.826Z,98336.19
2019-03-04T14:41:11.798Z,98334.39
2019-03-04T14:43:40.949Z,98322.61
2019-03-04T14:46:18.185Z,98342.94
2019-03-04T14:48:47.087Z,98322.36
2019-03-04T14:51:16.082Z,98318.24
2019-03-04T14:53:44.715Z,98328.47
2019-03-04T14:56:22.068Z,98326.44
2019-03-04T14:58:45.655Z,98319.62
2019-03-04T15:01:14.570Z,98319.62
2019-03-04T15:03:43.495Z,98308.13
2019-03-04T15:06:12.386Z,98337.69
2019-03-04T15:08:41.496Z,98309.91
2019-03-04T15:11:10.117Z,98318.34
2019-03-04T15:13:39.258Z,98325.80
2019-03-04T15:16:08.769Z,98325.80
2019-03-04T15:18:37.972Z,98326.71
2019-03-04T15:21:07.316Z,98326.71
2019-03-04T15:23:36.002Z,98327.92
2019-03-04T15:26:05.068Z,98348.35
2019-03-04T15:28:34.027Z,98335.00
2019-03-04T15:31:03.446Z,98325.53
2019-03-04T15:33:32.383Z,98361.46
2019-03-04T15:36:01.291Z,98376.61
2019-03-04T15:38:30.410Z,98451.05
2019-03-04T15:40:59.317Z,98367.95
2019-03-04T15:43:27.945Z,98367.95
2019-03-04T15:45:57.288Z,98342.31
2019-03-04T15:48:28.515Z,98336.52
2019-03-04T15:50:57.629Z,98336.52
2019-03-04T15:53:27.540Z,98334.45
2019-03-04T15:55:56.652Z,98341.08
2019-03-04T15:58:25.353Z,98339.15
2019-03-04T16:00:54.263Z,98355.77
2019-03-04T16:03:23.406Z,98365.65
2019-03-04T16:05:52.285Z,98332.37
2019-03-04T16:08:21.004Z,98333.01
2019-03-04T16:10:50.002Z,98341.01
2019-03-04T16:13:19.022Z,98356.62
2019-03-04T16:15:48.015Z,98345.16
2019-03-04T16:18:16.961Z,98338.82
2019-03-04T16:20:45.927Z,98367.94
2019-03-04T16:23:14.676Z,98374.23
2019-03-04T16:25:43.859Z,98342.28
2019-03-04T16:28:18.373Z,98365.45
2019-03-04T16:30:49.263Z,98358.53
2019-03-04T16:33:18.104Z,98362.00
2019-03-04T16:35:54.931Z,98342.14
2019-03-04T16:38:24.912Z,98345.59
2019-03-04T16:40:55.255Z,98349.86
2019-03-04T16:43:30.384Z,98332.98
2019-03-04T16:45:59.315Z,98340.45
2019-03-04T16:48:28.877Z,98330.95
2019-03-04T16:50:57.870Z,98352.05
2019-03-04T16:53:27.374Z,98346.87
2019-03-04T16:55:56.184Z,98359.95
2019-03-04T16:58:24.822Z,98357.67
2019-03-04T17:00:53.435Z,98336.97
2019-03-04T17:03:22.321Z,98368.61
2019-03-04T17:05:51.520Z,98373.88
2019-03-04T17:08:20.295Z,98346.62
2019-03-04T17:10:49.921Z,98374.14
2019-03-04T17:13:18.918Z,98395.83
2019-03-04T17:15:47.524Z,98375.80
2019-03-04T17:18:17.498Z,98362.72
2019-03-04T17:20:46.388Z,98379.47
2019-03-04T17:23:15.459Z,98366.62
2019-03-04T17:25:44.319Z,98399.27
2019-03-04T17:28:13.338Z,98403.31
2019-03-04T17:30:42.799Z,98357.34
2019-03-04T17:33:11.767Z,98406.36
2019-03-04T17:35:41.297Z,98366.88
2019-03-04T17:38:10.320Z,98373.13
2019-03-04T17:40:39.582Z,98372.14
2019-03-04T17:43:08.231Z,98364.34
2019-03-04T17:45:36.919Z,98357.10
2019-03-04T17:48:06.065Z,98403.41
2019-03-04T17:50:36.087Z,98387.01
2019-03-04T17:53:06.260Z,98443.23
2019-03-04T17:55:35.034Z,98443.23
2019-03-04T17:58:04.077Z,98421.25
2019-03-04T18:00:33.583Z,98421.25
2019-03-04T18:03:02.294Z,98388.26
2019-03-04T18:05:31.568Z,98387.77
2019-03-04T18:08:00.528Z,98423.63
2019-03-04T18:10:29.556Z,98468.87
2019-03-04T18:12:58.194Z,98468.87
2019-03-04T18:15:27.024Z,98412.59
2019-03-04T18:17:55.924Z,98449.75
2019-03-04T18:20:34.026Z,98418.20
2019-03-04T18:22:55.555Z,98430.27
2019-03-04T18:25:28.311Z,98432.41
2019-03-04T18:28:00.907Z,98445.77
2019-03-04T18:30:45.265Z,98493.27
2019-03-04T18:33:35.235Z,98464.30
2019-03-04T18:36:51.348Z,98434.73
2019-03-04T18:40:03.350Z,98443.19
2019-03-04T18:42:54.333Z,98458.35
2019-03-04T18:45:55.305Z,98469.05
2019-03-04T18:48:56.081Z,98493.77
2019-03-04T18:51:25.027Z,98493.77
2019-03-04T18:53:55.640Z,98458.09
2019-03-04T18:56:24.368Z,98481.03
2019-03-04T18:58:53.451Z,98471.66
2019-03-04T19:01:22.744Z,98457.18
2019-03-04T19:03:51.746Z,98471.07
2019-03-04T19:06:20.761Z,98491.73
2019-03-04T19:08:51.575Z,98483.58
2019-03-04T19:11:20.472Z,98472.46
2019-03-04T19:13:49.116Z,98485.27
2019-03-04T19:16:17.827Z,98485.27
2019-03-04T19:18:46.835Z,98536.44
2019-03-04T19:21:15.731Z,98536.44
2019-03-04T19:23:44.628Z,98493.05
2019-03-04T19:26:14.028Z,98493.05
2019-03-04T19:28:43.377Z,98596.36
2019-03-04T19:31:11.988Z,98541.35
2019-03-04T19:33:40.897Z,98513.02
2019-03-04T19:36:09.643Z,98540.06
2019-03-04T19:38:38.299Z,98553.09
2019-03-04T19:41:07.040Z,98538.86
2019-03-04T19:43:40.317Z,98517.45
2019-03-04T19:46:09.313Z,98517.45
2019-03-04T19:48:38.064Z,98590.48
2019-03-04T19:51:07.504Z,98590.46
2019-03-04T19:53:36.260Z,98567.92
2019-03-04T19:56:05.298Z,98529.00
2019-03-04T19:58:34.594Z,98578.84
2019-03-04T20:01:04.453Z,98578.84
2019-03-04T20:03:33.672Z,98541.31
2019-03-04T20:06:03.586Z,98594.62
2019-03-04T20:08:33.036Z,98581.59
2019-03-04T20:11:02.125Z,98581.59
2019-03-04T20:13:31.222Z,98569.63
2019-03-04T20:16:00.214Z,98608.83
2019-03-04T20:18:29.319Z,98627.72
2019-03-04T20:20:58.409Z,98572.97
2019-03-04T20:23:27.053Z,98595.36
2019-03-04T20:25:56.565Z,98593.79
2019-03-04T20:28:25.208Z,98593.79
2019-03-04T20:30:53.894Z,98589.85
2019-03-04T20:33:22.860Z,98688.48
2019-03-04T20:35:51.876Z,98592.38
2019-03-04T20:38:24.088Z,98705.53
2019-03-04T20:40:52.973Z,98628.44
2019-03-04T20:43:21.661Z,98600.84
2019-03-04T20:45:50.688Z,98636.63
2019-03-04T20:48:19.996Z,98636.63
2019-03-04T20:50:49.188Z,98636.10
2019-03-04T20:53:18.292Z,98636.10
2019-03-04T20:55:47.690Z,98581.41
2019-03-04T20:58:16.529Z,98635.09
2019-03-04T21:00:45.588Z,98641.02
2019-03-04T21:03:14.596Z,98641.02
2019-03-04T21:05:43.643Z,98677.19
2019-03-04T21:08:12.936Z,98677.19
2019-03-04T21:10:41.964Z,98711.48
2019-03-04T21:13:22.339Z,98661.63
2019-03-04T21:15:53.464Z,98674.77
2019-03-04T21:20:57.841Z,98736.86
2019-03-04T21:23:29.832Z,98681.30
2019-03-04T21:26:18.045Z,98739.80
2019-03-04T21:29:29.851Z,98739.80
2019-03-04T21:32:06.852Z,98722.59
2019-03-04T21:35:05.466Z,98687.69
2019-03-04T21:37:37.748Z,98732.08
2019-03-04T21:40:17.157Z,98732.08
2019-03-04T21:42:55.001Z,98781.45
2019-03-04T21:46:01.085Z,98726.66
2019-03-04T21:48:52.591Z,98748.57
2019-03-04T21:51:58.438Z,98769.64
2019-03-04T21:54:27.525Z,98742.80
2019-03-04T21:57:22.173Z,98772.06
2019-03-04T21:59:51.181Z,98744.47
2019-03-04T22:02:43.725Z,98752.03
2019-03-04T22:05:14.020Z,98767.08
2019-03-04T22:07:43.254Z,98767.08
2019-03-04T22:10:13.108Z,98779.88
2019-03-04T22:12:54.122Z,98779.88
2019-03-04T22:15:24.143Z,98771.27
2019-03-04T22:18:02.709Z,98840.20
2019-03-04T22:23:06.157Z,98799.92
2019-03-04T22:25:35.397Z,98777.49
2019-03-04T22:28:05.331Z,98757.17
2019-03-04T22:30:34.521Z,98794.37
2019-03-04T22:33:03.478Z,98797.33
2019-03-04T22:39:01.127Z,98815.00
2019-03-04T22:41:30.471Z,98781.65
2019-03-04T22:43:59.721Z,98824.67
2019-03-04T22:46:28.934Z,98814.20
2019-03-04T22:48:57.913Z,98825.31
2019-03-04T22:51:26.910Z,98798.31
2019-03-04T22:53:56.016Z,98798.31
2019-03-04T22:56:25.135Z,98812.06
2019-03-04T22:58:53.762Z,98851.73
2019-03-04T23:01:36.084Z,98822.44
2019-03-04T23:04:22.504Z,98883.89
2019-03-04T23:06:55.384Z,98883.89
2019-03-04T23:09:24.882Z,98866.26
2019-03-04T23:11:59.357Z,98866.26
2019-03-04T23:14:29.739Z,98847.86
2019-03-04T23:17:00.242Z,98847.86
2019-03-04T23:19:29.228Z,98831.98
2019-03-04T23:21:58.331Z,98856.09
2019-03-04T23:24:27.243Z,98880.16
2019-03-04T23:26:56.242Z,98880.16
2019-03-04T23:29:24.880Z,98875.45
2019-03-04T23:31:54.123Z,98865.05
2019-03-04T23:34:23.118Z,98869.78
2019-03-04T23:36:51.789Z,98870.25
2019-03-04T23:39:20.797Z,98862.02
2019-03-04T23:41:49.792Z,98862.02
2019-03-04T23:44:18.784Z,98868.52
2019-03-04T23:46:47.678Z,98890.47
2019-03-04T23:49:16.310Z,98865.55
2019-03-04T23:51:45.007Z,98892.34
2019-03-04T23:54:13.939Z,98918.98
2019-03-04T23:56:42.855Z,98918.98
2019-03-04T23:59:11.755Z,98876.39
